sensor_id;sensor_type;location;lat;lon;timestamp;pressure;altitude;pressure_sealevel;temperature;humidity
25350;BME280;13302;48.796;11.978;2022-11-25T00:00:20;96798.56;;;7.42;35.35
25350;BME280;13302;48.796;11.978;2022-11-25T00:03:07;96800.06;;;7.40;35.13
25350;BME280;13302;48.796;11.978;2022-11-25T00:05:54;96809.44;;;7.38;35.29
25350;BME280;13302;48.796;11.978;2022-11-25T00:08:43;96807.84;;;7.38;35.15
25350;BME280;13302;48.796;11.978;2022-11-25T00:11:34;96808.44;;;7.34;35.24
25350;BME280;13302;48.796;11.978;2022-11-25T00:14:22;96804.88;;;7.34;35.10
25350;BME280;13302;48.796;11.978;2022-11-25T00:17:09;96811.88;;;7.31;35.29
25350;BME280;13302;48.796;11.978;2022-11-25T00:19:56;96805.56;;;7.31;35.41
25350;BME280;13302;48.796;11.978;2022-11-25T00:22:43;96798.44;;;7.30;35.69
25350;BME280;13302;48.796;11.978;2022-11-25T00:25:30;96798.13;;;7.31;35.79
25350;BME280;13302;48.796;11.978;2022-11-25T00:28:17;96805.25;;;7.32;35.37
25350;BME280;13302;48.796;11.978;2022-11-25T00:31:13;96810.25;;;7.30;35.19
25350;BME280;13302;48.796;11.978;2022-11-25T00:34:01;96815.59;;;7.27;35.23
25350;BME280;13302;48.796;11.978;2022-11-25T00:36:48;96822.59;;;7.24;35.17
25350;BME280;13302;48.796;11.978;2022-11-25T00:39:36;96833.91;;;7.23;35.56
25350;BME280;13302;48.796;11.978;2022-11-25T00:42:23;96823.22;;;7.21;35.42
25350;BME280;13302;48.796;11.978;2022-11-25T00:45:29;96830.19;;;7.19;35.58
25350;BME280;13302;48.796;11.978;2022-11-25T00:48:16;96829.75;;;7.17;35.71
25350;BME280;13302;48.796;11.978;2022-11-25T00:51:03;96838.75;;;7.17;35.99
25350;BME280;13302;48.796;11.978;2022-11-25T00:53:50;96841.69;;;7.21;36.22
25350;BME280;13302;48.796;11.978;2022-11-25T00:56:44;96842.66;;;7.25;35.85
25350;BME280;13302;48.796;11.978;2022-11-25T00:59:31;96845.53;;;7.28;35.81
25350;BME280;13302;48.796;11.978;2022-11-25T01:02:18;96840.50;;;7.30;35.81
25350;BME280;13302;48.796;11.978;2022-11-25T01:05:05;96839.06;;;7.33;35.92
25350;BME280;13302;48.796;11.978;2022-11-25T01:07:53;96843.38;;;7.34;35.61
25350;BME280;13302;48.796;11.978;2022-11-25T01:10:40;96841.44;;;7.34;35.79
25350;BME280;13302;48.796;11.978;2022-11-25T01:13:28;96845.84;;;7.35;35.68
25350;BME280;13302;48.796;11.978;2022-11-25T01:16:17;96843.09;;;7.35;36.05
25350;BME280;13302;48.796;11.978;2022-11-25T01:19:05;96837.28;;;7.37;35.75
25350;BME280;13302;48.796;11.978;2022-11-25T01:21:52;96838.88;;;7.38;35.46
25350;BME280;13302;48.796;11.978;2022-11-25T01:24:39;96833.38;;;7.38;35.25
25350;BME280;13302;48.796;11.978;2022-11-25T01:27:27;96836.47;;;7.36;35.50
25350;BME280;13302;48.796;11.978;2022-11-25T01:30:14;96842.59;;;7.33;35.52
25350;BME280;13302;48.796;11.978;2022-11-25T01:33:01;96837.44;;;7.32;35.56
25350;BME280;13302;48.796;11.978;2022-11-25T01:35:48;96835.00;;;7.30;35.60
25350;BME280;13302;48.796;11.978;2022-11-25T01:38:35;96834.19;;;7.30;35.52
25350;BME280;13302;48.796;11.978;2022-11-25T01:41:27;96827.09;;;7.29;35.64
25350;BME280;13302;48.796;11.978;2022-11-25T01:44:21;96830.97;;;7.28;35.36
25350;BME280;13302;48.796;11.978;2022-11-25T01:47:14;96836.78;;;7.26;35.27
25350;BME280;13302;48.796;11.978;2022-11-25T01:50:04;96833.59;;;7.24;35.29
25350;BME280;13302;48.796;11.978;2022-11-25T01:52:54;96827.94;;;7.21;35.17
25350;BME280;13302;48.796;11.978;2022-11-25T01:55:47;96833.75;;;7.19;35.08
25350;BME280;13302;48.796;11.978;2022-11-25T01:58:35;96827.78;;;7.17;35.01
25350;BME280;13302;48.796;11.978;2022-11-25T02:01:24;96832.00;;;7.15;35.20
25350;BME280;13302;48.796;11.978;2022-11-25T02:04:15;96828.28;;;7.11;35.03
25350;BME280;13302;48.796;11.978;2022-11-25T02:07:12;96817.97;;;7.08;34.83
25350;BME280;13302;48.796;11.978;2022-11-25T02:10:06;96817.47;;;7.06;35.10
25350;BME280;13302;48.796;11.978;2022-11-25T02:12:54;96817.81;;;7.04;35.05
25350;BME280;13302;48.796;11.978;2022-11-25T02:15:41;96814.59;;;7.02;35.00
25350;BME280;13302;48.796;11.978;2022-11-25T02:18:29;96818.47;;;7.01;35.01
25350;BME280;13302;48.796;11.978;2022-11-25T02:21:30;96817.50;;;6.97;34.88
25350;BME280;13302;48.796;11.978;2022-11-25T02:24:33;96821.72;;;6.95;34.84
25350;BME280;13302;48.796;11.978;2022-11-25T02:27:26;96817.69;;;6.92;34.99
25350;BME280;13302;48.796;11.978;2022-11-25T02:30:13;96818.84;;;6.91;35.02
25350;BME280;13302;48.796;11.978;2022-11-25T02:33:00;96815.59;;;6.89;34.92
25350;BME280;13302;48.796;11.978;2022-11-25T02:35:53;96815.94;;;6.87;34.81
25350;BME280;13302;48.796;11.978;2022-11-25T02:38:53;96806.38;;;6.85;34.86
25350;BME280;13302;48.796;11.978;2022-11-25T02:41:48;96807.06;;;6.82;34.74
25350;BME280;13302;48.796;11.978;2022-11-25T02:44:37;96810.94;;;6.81;34.68
25350;BME280;13302;48.796;11.978;2022-11-25T02:47:24;96794.28;;;6.77;34.62
25350;BME280;13302;48.796;11.978;2022-11-25T02:50:11;96799.31;;;6.75;34.44
25350;BME280;13302;48.796;11.978;2022-11-25T02:52:59;96802.72;;;6.72;34.57
25350;BME280;13302;48.796;11.978;2022-11-25T02:55:46;96802.25;;;6.70;34.61
25350;BME280;13302;48.796;11.978;2022-11-25T02:58:34;96796.59;;;6.67;34.63
25350;BME280;13302;48.796;11.978;2022-11-25T03:01:21;96798.38;;;6.63;34.48
25350;BME280;13302;48.796;11.978;2022-11-25T03:04:09;96804.19;;;6.61;34.64
25350;BME280;13302;48.796;11.978;2022-11-25T03:06:56;96804.84;;;6.58;34.60
25350;BME280;13302;48.796;11.978;2022-11-25T03:09:44;96807.91;;;6.57;34.64
25350;BME280;13302;48.796;11.978;2022-11-25T03:12:31;96808.25;;;6.55;34.72
25350;BME280;13302;48.796;11.978;2022-11-25T03:15:18;96804.22;;;6.53;34.84
25350;BME280;13302;48.796;11.978;2022-11-25T03:18:05;96798.25;;;6.51;34.76
25350;BME280;13302;48.796;11.978;2022-11-25T03:20:54;96802.13;;;6.50;34.83
25350;BME280;13302;48.796;11.978;2022-11-25T03:23:43;96806.34;;;6.47;34.68
25350;BME280;13302;48.796;11.978;2022-11-25T03:26:30;96808.59;;;6.45;34.67
25350;BME280;13302;48.796;11.978;2022-11-25T03:29:17;96810.53;;;6.44;34.56
25350;BME280;13302;48.796;11.978;2022-11-25T03:32:05;96802.94;;;6.41;34.47
25350;BME280;13302;48.796;11.978;2022-11-25T03:34:56;96804.41;;;6.39;34.25
25350;BME280;13302;48.796;11.978;2022-11-25T03:37:44;96807.78;;;6.36;34.28
25350;BME280;13302;48.796;11.978;2022-11-25T03:40:31;96813.94;;;6.33;34.37
25350;BME280;13302;48.796;11.978;2022-11-25T03:43:18;96813.47;;;6.31;34.36
25350;BME280;13302;48.796;11.978;2022-11-25T03:46:07;96817.66;;;6.28;34.38
25350;BME280;13302;48.796;11.978;2022-11-25T03:48:54;96808.94;;;6.26;34.37
25350;BME280;13302;48.796;11.978;2022-11-25T03:51:42;96814.75;;;6.25;34.48
25350;BME280;13302;48.796;11.978;2022-11-25T03:54:30;96819.28;;;6.21;34.74
25350;BME280;13302;48.796;11.978;2022-11-25T03:57:32;96824.28;;;6.19;34.64
25350;BME280;13302;48.796;11.978;2022-11-25T04:00:20;96824.28;;;6.19;34.41
25350;BME280;13302;48.796;11.978;2022-11-25T04:03:17;96824.91;;;6.16;34.30
25350;BME280;13302;48.796;11.978;2022-11-25T04:06:04;96826.84;;;6.15;34.16
25350;BME280;13302;48.796;11.978;2022-11-25T04:08:51;96840.91;;;6.14;34.29
25350;BME280;13302;48.796;11.978;2022-11-25T04:11:40;96843.16;;;6.12;34.43
25350;BME280;13302;48.796;11.978;2022-11-25T04:14:51;96841.03;;;6.09;34.33
25350;BME280;13302;48.796;11.978;2022-11-25T04:17:38;96848.16;;;6.10;34.41
25350;BME280;13302;48.796;11.978;2022-11-25T04:20:25;96848.47;;;6.08;34.45
25350;BME280;13302;48.796;11.978;2022-11-25T04:23:20;96843.28;;;6.07;34.34
25350;BME280;13302;48.796;11.978;2022-11-25T04:26:14;96848.78;;;6.07;34.47
25350;BME280;13302;48.796;11.978;2022-11-25T04:29:01;96850.75;;;6.06;34.60
25350;BME280;13302;48.796;11.978;2022-11-25T04:31:49;96849.94;;;6.06;34.49
25350;BME280;13302;48.796;11.978;2022-11-25T04:34:36;96849.94;;;6.06;34.16
25350;BME280;13302;48.796;11.978;2022-11-25T04:37:23;96854.91;;;6.04;34.22
25350;BME280;13302;48.796;11.978;2022-11-25T04:40:12;96861.22;;;6.04;34.31
25350;BME280;13302;48.796;11.978;2022-11-25T04:43:04;96844.75;;;6.04;34.30
25350;BME280;13302;48.796;11.978;2022-11-25T04:46:00;96844.75;;;6.04;34.28
25350;BME280;13302;48.796;11.978;2022-11-25T04:49:06;96843.94;;;6.04;34.12
25350;BME280;13302;48.796;11.978;2022-11-25T04:51:54;96842.31;;;6.02;33.93
25350;BME280;13302;48.796;11.978;2022-11-25T04:54:41;96848.16;;;6.01;33.88
25350;BME280;13302;48.796;11.978;2022-11-25T04:57:28;96854.28;;;5.98;33.88
25350;BME280;13302;48.796;11.978;2022-11-25T05:00:15;96857.66;;;5.95;33.90
25350;BME280;13302;48.796;11.978;2022-11-25T05:03:03;96857.19;;;5.93;34.04
25350;BME280;13302;48.796;11.978;2022-11-25T05:05:51;96859.41;;;5.91;33.98
25350;BME280;13302;48.796;11.978;2022-11-25T05:08:39;96853.94;;;5.91;34.01
25350;BME280;13302;48.796;11.978;2022-11-25T05:11:26;96856.50;;;5.87;34.02
25350;BME280;13302;48.796;11.978;2022-11-25T05:14:14;96853.31;;;5.85;34.35
25350;BME280;13302;48.796;11.978;2022-11-25T05:17:02;96856.03;;;5.85;34.25
25350;BME280;13302;48.796;11.978;2022-11-25T05:19:50;96860.72;;;5.85;34.00
25350;BME280;13302;48.796;11.978;2022-11-25T05:22:38;96850.88;;;5.84;34.11
25350;BME280;13302;48.796;11.978;2022-11-25T05:25:27;96846.03;;;5.81;34.05
25350;BME280;13302;48.796;11.978;2022-11-25T05:28:34;96851.00;;;5.79;33.86
25350;BME280;13302;48.796;11.978;2022-11-25T05:31:21;96845.38;;;5.75;33.93
25350;BME280;13302;48.796;11.978;2022-11-25T05:34:09;96846.00;;;5.72;34.23
25350;BME280;13302;48.796;11.978;2022-11-25T05:36:57;96855.66;;;5.70;34.24
25350;BME280;13302;48.796;11.978;2022-11-25T05:39:44;96854.06;;;5.69;34.05
25350;BME280;13302;48.796;11.978;2022-11-25T05:42:54;96849.19;;;5.66;34.05
25350;BME280;13302;48.796;11.978;2022-11-25T05:45:41;96843.56;;;5.62;34.02
25350;BME280;13302;48.796;11.978;2022-11-25T05:48:30;96847.41;;;5.61;34.01
25350;BME280;13302;48.796;11.978;2022-11-25T05:51:17;96841.94;;;5.61;34.20
25350;BME280;13302;48.796;11.978;2022-11-25T05:54:04;96852.91;;;5.61;34.29
25350;BME280;13302;48.796;11.978;2022-11-25T05:56:53;96850.50;;;5.60;34.30
25350;BME280;13302;48.796;11.978;2022-11-25T06:00:07;96852.44;;;5.59;34.63
25350;BME280;13302;48.796;11.978;2022-11-25T06:03:09;96856.28;;;5.58;34.47
25350;BME280;13302;48.796;11.978;2022-11-25T06:05:58;96857.41;;;5.57;34.60
25350;BME280;13302;48.796;11.978;2022-11-25T06:08:46;96859.84;;;5.59;34.66
25350;BME280;13302;48.796;11.978;2022-11-25T06:11:33;96854.34;;;5.59;34.34
25350;BME280;13302;48.796;11.978;2022-11-25T06:14:20;96852.44;;;5.59;34.31
25350;BME280;13302;48.796;11.978;2022-11-25T06:17:09;96859.03;;;5.58;34.31
25350;BME280;13302;48.796;11.978;2022-11-25T06:20:06;96860.97;;;5.58;34.13
25350;BME280;13302;48.796;11.978;2022-11-25T06:22:53;96862.09;;;5.57;34.07
25350;BME280;13302;48.796;11.978;2022-11-25T06:25:46;96862.72;;;5.53;34.08
25350;BME280;13302;48.796;11.978;2022-11-25T06:28:33;96852.91;;;5.52;34.32
25350;BME280;13302;48.796;11.978;2022-11-25T06:31:23;96858.69;;;5.51;34.42
25350;BME280;13302;48.796;11.978;2022-11-25T06:34:37;96854.03;;;5.51;34.36
25350;BME280;13302;48.796;11.978;2022-11-25T06:37:38;96848.53;;;5.51;34.29
25350;BME280;13302;48.796;11.978;2022-11-25T06:40:25;96848.53;;;5.51;34.39
25350;BME280;13302;48.796;11.978;2022-11-25T06:43:12;96858.38;;;5.52;34.32
25350;BME280;13302;48.796;11.978;2022-11-25T06:46:07;96863.06;;;5.52;34.30
25350;BME280;13302;48.796;11.978;2022-11-25T06:48:54;96871.28;;;5.52;34.03
25350;BME280;13302;48.796;11.978;2022-11-25T06:51:41;96871.28;;;5.52;33.97
25350;BME280;13302;48.796;11.978;2022-11-25T06:54:28;96880.94;;;5.49;34.08
25350;BME280;13302;48.796;11.978;2022-11-25T06:57:17;96886.75;;;5.48;34.01
25350;BME280;13302;48.796;11.978;2022-11-25T07:00:05;96882.88;;;5.49;33.99
25350;BME280;13302;48.796;11.978;2022-11-25T07:02:52;96896.56;;;5.49;33.97
25350;BME280;13302;48.796;11.978;2022-11-25T07:05:39;96891.09;;;5.49;34.01
25350;BME280;13302;48.796;11.978;2022-11-25T07:08:27;96878.19;;;5.49;33.75
25350;BME280;13302;48.796;11.978;2022-11-25T07:11:21;96896.28;;;5.50;33.92
25350;BME280;13302;48.796;11.978;2022-11-25T07:14:11;96897.72;;;5.48;33.81
25350;BME280;13302;48.796;11.978;2022-11-25T07:16:59;96899.31;;;5.49;34.03
25350;BME280;13302;48.796;11.978;2022-11-25T07:19:47;96903.22;;;5.48;34.17
25350;BME280;13302;48.796;11.978;2022-11-25T07:22:34;96895.28;;;5.46;33.94
25350;BME280;13302;48.796;11.978;2022-11-25T07:25:21;96895.28;;;5.46;34.25
25350;BME280;13302;48.796;11.978;2022-11-25T07:28:15;96894.47;;;5.46;34.36
25350;BME280;13302;48.796;11.978;2022-11-25T07:31:28;96890.09;;;5.45;34.38
25350;BME280;13302;48.796;11.978;2022-11-25T07:34:19;96896.09;;;5.47;34.21
25350;BME280;13302;48.796;11.978;2022-11-25T07:37:07;96896.56;;;5.49;34.21
25350;BME280;13302;48.796;11.978;2022-11-25T07:39:54;96893.84;;;5.49;34.50
25350;BME280;13302;48.796;11.978;2022-11-25T07:42:41;96890.97;;;5.54;34.59
25350;BME280;13302;48.796;11.978;2022-11-25T07:45:28;96894.22;;;5.56;34.69
25350;BME280;13302;48.796;11.978;2022-11-25T07:48:33;96905.00;;;5.61;34.51
25350;BME280;13302;48.796;11.978;2022-11-25T07:51:24;96904.69;;;5.63;34.54
25350;BME280;13302;48.796;11.978;2022-11-25T07:54:12;96908.75;;;5.65;34.81
25350;BME280;13302;48.796;11.978;2022-11-25T07:56:59;96911.66;;;5.69;34.73
25350;BME280;13302;48.796;11.978;2022-11-25T07:59:46;96932.47;;;5.70;34.84
25350;BME280;13302;48.796;11.978;2022-11-25T08:02:33;96919.25;;;5.72;34.96
25350;BME280;13302;48.796;11.978;2022-11-25T08:05:20;96934.25;;;5.74;35.00
25350;BME280;13302;48.796;11.978;2022-11-25T08:08:07;96920.22;;;5.76;35.12
25350;BME280;13302;48.796;11.978;2022-11-25T08:10:54;96905.88;;;5.79;35.15
25350;BME280;13302;48.796;11.978;2022-11-25T08:13:42;96909.94;;;5.81;35.10
25350;BME280;13302;48.796;11.978;2022-11-25T08:16:29;96915.88;;;5.83;35.26
25350;BME280;13302;48.796;11.978;2022-11-25T08:19:17;96914.94;;;5.88;35.14
25350;BME280;13302;48.796;11.978;2022-11-25T08:22:05;96912.34;;;5.91;35.06
25350;BME280;13302;48.796;11.978;2022-11-25T08:24:52;96913.03;;;5.97;35.23
25350;BME280;13302;48.796;11.978;2022-11-25T08:27:39;96915.94;;;6.00;35.01
25350;BME280;13302;48.796;11.978;2022-11-25T08:30:27;96916.41;;;6.02;34.98
25350;BME280;13302;48.796;11.978;2022-11-25T08:33:14;96908.69;;;6.05;35.11
25350;BME280;13302;48.796;11.978;2022-11-25T08:36:03;96904.81;;;6.06;35.05
25350;BME280;13302;48.796;11.978;2022-11-25T08:38:53;96919.81;;;6.08;35.13
25350;BME280;13302;48.796;11.978;2022-11-25T08:41:40;96923.09;;;6.10;35.45
25350;BME280;13302;48.796;11.978;2022-11-25T08:44:28;96920.00;;;6.12;35.42
25350;BME280;13302;48.796;11.978;2022-11-25T08:47:15;96929.56;;;6.14;35.38
25350;BME280;13302;48.796;11.978;2022-11-25T08:50:07;96939.91;;;6.17;35.51
25350;BME280;13302;48.796;11.978;2022-11-25T08:52:54;96943.09;;;6.19;35.37
25350;BME280;13302;48.796;11.978;2022-11-25T08:55:41;96942.81;;;6.21;35.47
25350;BME280;13302;48.796;11.978;2022-11-25T08:58:28;96950.72;;;6.22;35.42
25350;BME280;13302;48.796;11.978;2022-11-25T09:01:17;96955.06;;;6.23;35.57
25350;BME280;13302;48.796;11.978;2022-11-25T09:04:04;96956.69;;;6.24;35.52
25350;BME280;13302;48.796;11.978;2022-11-25T09:06:51;96975.25;;;6.27;35.77
25350;BME280;13302;48.796;11.978;2022-11-25T09:09:38;96971.09;;;6.30;35.86
25350;BME280;13302;48.796;11.978;2022-11-25T09:12:26;96973.47;;;6.31;35.76
25350;BME280;13302;48.796;11.978;2022-11-25T09:15:13;96979.16;;;6.35;35.88
25350;BME280;13302;48.796;11.978;2022-11-25T09:18:03;96969.78;;;6.36;35.98
25350;BME280;13302;48.796;11.978;2022-11-25T09:20:52;96971.91;;;6.39;35.82
25350;BME280;13302;48.796;11.978;2022-11-25T09:23:39;96972.88;;;6.43;36.07
25350;BME280;13302;48.796;11.978;2022-11-25T09:26:29;96980.78;;;6.44;35.95
25350;BME280;13302;48.796;11.978;2022-11-25T09:29:17;96975.44;;;6.48;36.04
25350;BME280;13302;48.796;11.978;2022-11-25T09:32:04;96982.25;;;6.51;35.98
25350;BME280;13302;48.796;11.978;2022-11-25T09:34:51;96981.09;;;6.52;36.04
25350;BME280;13302;48.796;11.978;2022-11-25T09:37:38;96990.66;;;6.54;36.06
25350;BME280;13302;48.796;11.978;2022-11-25T09:44:04;96989.19;;;6.57;36.07
25350;BME280;13302;48.796;11.978;2022-11-25T09:47:29;96992.44;;;6.59;36.30
25350;BME280;13302;48.796;11.978;2022-11-25T09:53:40;96986.94;;;6.67;36.46
25350;BME280;13302;48.796;11.978;2022-11-25T09:56:37;96987.59;;;6.73;36.62
25350;BME280;13302;48.796;11.978;2022-11-25T09:59:57;96990.50;;;6.76;36.56
25350;BME280;13302;48.796;11.978;2022-11-25T10:06:14;96984.69;;;6.86;36.62
25350;BME280;13302;48.796;11.978;2022-11-25T10:09:10;96986.16;;;6.93;36.41
25350;BME280;13302;48.796;11.978;2022-11-25T10:12:27;96976.13;;;6.97;36.65
25350;BME280;13302;48.796;11.978;2022-11-25T10:15:20;96977.09;;;7.01;36.51
25350;BME280;13302;48.796;11.978;2022-11-25T10:18:20;96966.72;;;7.06;36.66
25350;BME280;13302;48.796;11.978;2022-11-25T10:21:09;96956.38;;;7.12;36.56
25350;BME280;13302;48.796;11.978;2022-11-25T10:23:57;96958.59;;;7.18;36.98
25350;BME280;13302;48.796;11.978;2022-11-25T10:26:50;96961.19;;;7.23;37.15
25350;BME280;13302;48.796;11.978;2022-11-25T10:29:40;96964.25;;;7.30;37.09
25350;BME280;13302;48.796;11.978;2022-11-25T10:32:33;96954.72;;;7.36;36.95
25350;BME280;13302;48.796;11.978;2022-11-25T10:35:44;96949.34;;;7.49;36.85
25350;BME280;13302;48.796;11.978;2022-11-25T10:38:49;96941.22;;;7.61;36.96
25350;BME280;13302;48.796;11.978;2022-11-25T10:42:03;96946.50;;;7.74;37.01
25350;BME280;13302;48.796;11.978;2022-11-25T10:44:53;96946.75;;;7.90;36.97
25350;BME280;13302;48.796;11.978;2022-11-25T10:48:19;96926.09;;;8.05;37.10
25350;BME280;13302;48.796;11.978;2022-11-25T10:54:19;96931.91;;;8.32;37.04
25350;BME280;13302;48.796;11.978;2022-11-25T10:57:27;96923.72;;;8.45;36.74
25350;BME280;13302;48.796;11.978;2022-11-25T11:00:35;96926.91;;;8.55;36.76
25350;BME280;13302;48.796;11.978;2022-11-25T11:03:24;96935.94;;;8.64;36.53
25350;BME280;13302;48.796;11.978;2022-11-25T11:06:34;96938.94;;;8.71;36.54
25350;BME280;13302;48.796;11.978;2022-11-25T11:09:39;96935.97;;;8.77;36.73
25350;BME280;13302;48.796;11.978;2022-11-25T11:12:28;96945.50;;;8.79;36.40
25350;BME280;13302;48.796;11.978;2022-11-25T11:15:22;96951.16;;;8.83;36.40
25350;BME280;13302;48.796;11.978;2022-11-25T11:18:29;96943.81;;;8.87;36.48
25350;BME280;13302;48.796;11.978;2022-11-25T11:21:34;96947.06;;;8.89;36.30
25350;BME280;13302;48.796;11.978;2022-11-25T11:24:29;96942.81;;;8.91;36.40
25350;BME280;13302;48.796;11.978;2022-11-25T11:27:23;96938.91;;;8.92;36.35
25350;BME280;13302;48.796;11.978;2022-11-25T11:30:19;96928.22;;;8.91;36.28
25350;BME280;13302;48.796;11.978;2022-11-25T11:33:40;96926.97;;;8.88;36.24
25350;BME280;13302;48.796;11.978;2022-11-25T11:40:11;96934.09;;;8.89;36.40
25350;BME280;13302;48.796;11.978;2022-11-25T11:52:29;96924.31;;;8.92;36.25
25350;BME280;13302;48.796;11.978;2022-11-25T12:05:21;96924.50;;;9.07;35.99
25350;BME280;13302;48.796;11.978;2022-11-25T12:08:19;96924.97;;;9.09;35.91
25350;BME280;13302;48.796;11.978;2022-11-25T12:11:15;96924.63;;;9.11;36.20
25350;BME280;13302;48.796;11.978;2022-11-25T12:17:22;96915.69;;;9.14;36.34
25350;BME280;13302;48.796;11.978;2022-11-25T12:20:31;96919.38;;;9.18;36.43
25350;BME280;13302;48.796;11.978;2022-11-25T12:23:42;96921.88;;;9.23;36.34
25350;BME280;13302;48.796;11.978;2022-11-25T12:26:50;96927.88;;;9.25;36.19
25350;BME280;13302;48.796;11.978;2022-11-25T12:29:51;96926.38;;;9.28;36.15
25350;BME280;13302;48.796;11.978;2022-11-25T12:33:09;96927.31;;;9.32;36.16
25350;BME280;13302;48.796;11.978;2022-11-25T12:36:03;96931.47;;;9.38;36.00
25350;BME280;13302;48.796;11.978;2022-11-25T12:38:59;96928.50;;;9.43;35.95
25350;BME280;13302;48.796;11.978;2022-11-25T12:41:52;96934.59;;;9.48;35.74
25350;BME280;13302;48.796;11.978;2022-11-25T12:47:45;96944.28;;;9.54;35.92
25350;BME280;13302;48.796;11.978;2022-11-25T12:50:53;96945.56;;;9.57;36.03
25350;BME280;13302;48.796;11.978;2022-11-25T13:07:04;96945.94;;;9.67;35.91
25350;BME280;13302;48.796;11.978;2022-11-25T13:10:08;96949.28;;;9.73;35.93
25350;BME280;13302;48.796;11.978;2022-11-25T13:16:09;96951.47;;;9.80;36.07
25350;BME280;13302;48.796;11.978;2022-11-25T13:18:57;96955.97;;;9.84;35.92
25350;BME280;13302;48.796;11.978;2022-11-25T13:22:01;96954.47;;;9.87;35.96
25350;BME280;13302;48.796;11.978;2022-11-25T13:24:50;96962.53;;;9.92;36.12
25350;BME280;13302;48.796;11.978;2022-11-25T13:36:15;96956.91;;;10.00;36.40
25350;BME280;13302;48.796;11.978;2022-11-25T13:39:04;96963.22;;;10.01;36.11
25350;BME280;13302;48.796;11.978;2022-11-25T13:42:10;96959.31;;;10.02;36.10
25350;BME280;13302;48.796;11.978;2022-11-25T13:44:59;96962.19;;;10.05;36.31
25350;BME280;13302;48.796;11.978;2022-11-25T13:47:47;96940.88;;;10.06;36.40
25350;BME280;13302;48.796;11.978;2022-11-25T13:50:35;96957.94;;;10.08;36.33
25350;BME280;13302;48.796;11.978;2022-11-25T13:53:53;96963.47;;;10.08;36.24
25350;BME280;13302;48.796;11.978;2022-11-25T13:56:41;96956.09;;;10.12;36.50
25350;BME280;13302;48.796;11.978;2022-11-25T13:59:34;96963.22;;;10.13;36.45
25350;BME280;13302;48.796;11.978;2022-11-25T14:05:40;96971.84;;;10.11;36.55
25350;BME280;13302;48.796;11.978;2022-11-25T14:08:39;96979.34;;;10.11;36.50
25350;BME280;13302;48.796;11.978;2022-11-25T14:15:20;96982.44;;;10.09;36.77
25350;BME280;13302;48.796;11.978;2022-11-25T14:24:49;96995.91;;;10.11;36.66
25350;BME280;13302;48.796;11.978;2022-11-25T14:27:38;96994.28;;;10.10;36.81
25350;BME280;13302;48.796;11.978;2022-11-25T14:30:31;96997.06;;;10.10;36.71
25350;BME280;13302;48.796;11.978;2022-11-25T14:33:25;97002.13;;;10.08;36.74
25350;BME280;13302;48.796;11.978;2022-11-25T14:36:33;97005.22;;;10.06;36.93
25350;BME280;13302;48.796;11.978;2022-11-25T14:39:32;97005.91;;;10.03;37.25
25350;BME280;13302;48.796;11.978;2022-11-25T14:42:21;97008.69;;;10.03;36.95
25350;BME280;13302;48.796;11.978;2022-11-25T14:45:28;97008.22;;;10.01;36.97
25350;BME280;13302;48.796;11.978;2022-11-25T14:48:20;97016.50;;;10.01;37.06
25350;BME280;13302;48.796;11.978;2022-11-25T14:51:12;97018.13;;;10.02;37.00
25350;BME280;13302;48.796;11.978;2022-11-25T14:54:08;97024.34;;;9.99;37.21
25350;BME280;13302;48.796;11.978;2022-11-25T14:56:55;97026.28;;;9.99;37.15
25350;BME280;13302;48.796;11.978;2022-11-25T14:59:42;97032.94;;;9.98;37.38
25350;BME280;13302;48.796;11.978;2022-11-25T15:02:34;97034.44;;;9.95;37.55
25350;BME280;13302;48.796;11.978;2022-11-25T15:05:24;97028.94;;;9.95;37.24
25350;BME280;13302;48.796;11.978;2022-11-25T15:08:14;97032.84;;;9.94;37.24
25350;BME280;13302;48.796;11.978;2022-11-25T15:11:09;97038.03;;;9.96;37.36
25350;BME280;13302;48.796;11.978;2022-11-25T15:13:59;97037.66;;;9.97;37.34
25350;BME280;13302;48.796;11.978;2022-11-25T15:16:47;97034.09;;;9.97;37.15
25350;BME280;13302;48.796;11.978;2022-11-25T15:19:35;97038.84;;;9.96;37.23
25350;BME280;13302;48.796;11.978;2022-11-25T15:22:23;97041.22;;;9.98;37.49
25350;BME280;13302;48.796;11.978;2022-11-25T15:25:13;97043.88;;;9.94;37.42
25350;BME280;13302;48.796;11.978;2022-11-25T15:28:01;97045.50;;;9.95;37.32
25350;BME280;13302;48.796;11.978;2022-11-25T15:31:18;97052.16;;;9.94;37.63
25350;BME280;13302;48.796;11.978;2022-11-25T15:34:15;97057.34;;;9.96;37.50
25350;BME280;13302;48.796;11.978;2022-11-25T15:37:04;97056.53;;;9.95;37.49
25350;BME280;13302;48.796;11.978;2022-11-25T15:43:26;97069.53;;;9.95;37.22
25350;BME280;13302;48.796;11.978;2022-11-25T15:46:16;97077.50;;;9.96;37.22
25350;BME280;13302;48.796;11.978;2022-11-25T15:49:05;97078.97;;;9.94;37.59
25350;BME280;13302;48.796;11.978;2022-11-25T15:51:57;97080.09;;;9.93;37.44
25350;BME280;13302;48.796;11.978;2022-11-25T15:54:48;97088.41;;;9.93;37.72
25350;BME280;13302;48.796;11.978;2022-11-25T15:57:36;97090.38;;;9.92;37.49
25350;BME280;13302;48.796;11.978;2022-11-25T16:00:23;97091.97;;;9.93;37.45
25350;BME280;13302;48.796;11.978;2022-11-25T16:03:19;97091.97;;;9.93;37.38
25350;BME280;13302;48.796;11.978;2022-11-25T16:06:26;97091.16;;;9.93;37.43
25350;BME280;13302;48.796;11.978;2022-11-25T16:09:19;97092.31;;;9.92;37.58
25350;BME280;13302;48.796;11.978;2022-11-25T16:12:15;97101.75;;;9.91;37.64
25350;BME280;13302;48.796;11.978;2022-11-25T16:15:03;97104.19;;;9.92;37.52
25350;BME280;13302;48.796;11.978;2022-11-25T16:17:52;97104.84;;;9.89;37.44
25350;BME280;13302;48.796;11.978;2022-11-25T16:24:15;97120.28;;;9.90;37.69
25350;BME280;13302;48.796;11.978;2022-11-25T16:27:12;97126.59;;;9.91;37.56
25350;BME280;13302;48.796;11.978;2022-11-25T16:32:51;97133.75;;;9.92;37.62
25350;BME280;13302;48.796;11.978;2022-11-25T16:35:38;97132.13;;;9.91;37.57
25350;BME280;13302;48.796;11.978;2022-11-25T16:38:25;97129.38;;;9.91;37.79
25350;BME280;13302;48.796;11.978;2022-11-25T16:41:21;97136.84;;;9.90;37.85